DW3338 Weather Reports


time (UTC)temp
C
wind
direction
speed
KPH
gust
KPH
rain 1hr
cm
rain 24hr
cm
rain mn
cm
humidity
%
barometer
mb
20200229033022 21 360 12.9 37.0 0.00 0.00 0.00 71 1025.3
20200229031520 21 360 16.1 37.0 0.00 0.00 0.00 70 1025.3
20200229030018 21 360 17.7 35.4 0.00 0.00 0.00 69 1025.4
20200229024518 21 11 22.5 37.0 0.00 0.00 0.00 67 1025.4
20200229023015 21 360 19.3 33.8 0.00 0.00 0.00 66 1025.2
20200229021518 21 5 20.9 38.6 0.00 0.00 0.00 65 1025.2
20200229020014 21 360 17.7 38.6 0.00 0.00 0.00 65 1025.1
20200229014516 21 360 17.7 37.0 0.00 0.00 0.00 66 1024.9
20200229013014 21 14 20.9 40.2 0.00 0.00 0.00 66 1024.8
20200229011516 21 15 24.1 37.0 0.00 0.00 0.00 66 1024.6
20200229010013 21 19 14.5 35.4 0.00 0.00 0.00 67 1024.4
20200229004515 21 5 14.5 30.6 0.00 0.00 0.00 68 1024.1
20200229003032 21 360 19.3 40.2 0.00 0.00 0.00 68 1024.1
20200229001514 21 11 22.5 40.2 0.00 0.00 0.00 69 1023.9
20200229000032 21 5 22.5 33.8 0.00 0.00 0.00 71 1023.8
20200228234530 21 23 19.3 40.2 0.00 0.00 0.00 72 1023.8
20200228233032 21 14 17.7 40.2 0.00 0.00 0.00 75 1023.6
20200228231530 21 17 25.7 46.7 0.00 0.00 0.00 75 1023.8
20200228230031 21 5 30.6 48.3 0.00 0.00 0.00 74 1023.6
20200228224528 22 5 24.1 40.2 0.00 0.00 0.00 70 1023.4
20200228223031 22 360 19.3 40.2 0.00 0.00 0.00 66 1023.2
20200228221527 23 360 14.5 25.7 0.00 0.00 0.00 57 1022.9
20200228220029 23 360 14.5 25.7 0.00 0.00 0.00 58 1022.8
20200228214527 23 13 14.5 32.2 0.00 0.00 0.00 59 1022.8
20200228213029 23 5 20.9 33.8 0.00 0.00 0.00 60 1022.9
20200228211526 23 360 19.3 33.8 0.00 0.00 0.00 58 1022.9
20200228210024 23 360 17.7 32.2 0.00 0.00 0.00 61 1022.8
20200228204526 22 360 14.5 25.7 0.00 0.00 0.00 62 1022.8
20200228203022 23 360 14.5 32.2 0.00 0.00 0.00 63 1022.8
20200228201524 23 360 17.7 37.0 0.00 0.00 0.00 64 1022.8
20200228200023 23 23 19.3 33.8 0.00 0.00 0.00 61 1022.8
20200228194524 23 22 17.7 30.6 0.00 0.00 0.00 62 1022.9
20200228193014 23 360 14.5 29.0 0.00 0.00 0.00 62 1023.0
20200228191516 24 360 14.5 35.4 0.00 0.00 0.00 59 1023.1
20200228190014 25 29 16.1 29.0 0.00 0.00 0.00 56 1023.2
20200228184515 25 360 16.1 33.8 0.00 0.00 0.00 55 1023.3
20200228183013 25 16 12.9 30.6 0.00 0.00 0.00 57 1023.4
20200228181517 25 360 12.9 32.2 0.00 0.00 0.00 57 1023.6
20200228180015 24 360 19.3 35.4 0.00 0.00 0.00 56 1023.9
20200228174514 25 360 12.9 24.1 0.00 0.00 0.00 54 1024.0
20200228173015 25 360 14.5 30.6 0.00 0.00 0.00 56 1024.3
20200228171532 25 24 12.9 25.7 0.00 0.00 0.00 54 1024.5
20200228150015 23 360 20.9 35.4 0.00 0.00 0.00 63 1024.9
20200228144518 23 360 19.3 35.4 0.00 0.00 0.00 63 1024.7
20200228143015 22 360 17.7 40.2 0.00 0.00 0.00 64 1024.6
20200228141516 22 360 19.3 41.8 0.00 0.00 0.00 66 1024.4
20200228140032 22 19 22.5 38.6 0.00 0.00 0.00 66 1024.3
20200228134514 22 31 19.3 37.0 0.00 0.00 0.00 68 1024.1
20200228133032 21 360 16.1 35.4 0.00 0.00 0.00 70 1023.9
20200228131514 21 22 17.7 40.2 0.00 0.00 0.00 73 1023.8
20200228130013 21 360 16.1 33.8 0.00 0.03 0.00 73 1023.6
20200228124530 21 360 20.9 37.0 0.00 0.03 0.00 72 1023.4
20200228123013 21 360 25.7 45.1 0.00 0.03 0.00 70 1023.3
20200228121531 21 360 25.7 41.8 0.00 0.03 0.00 70 1023.0
20200228120033 21 5 24.1 38.6 0.00 0.03 0.00 70 1022.9